Time;durP1;ratioP1;P1;durP2;ratioP2;P2;SDS_P1;SDS_P2;PMS_P1;PMS_P2;Temp;Humidity;BMP_temperature;BMP_pressure;BME280_temperature;BME280_humidity;BME280_pressure;Samples;Min_cycle;Max_cycle;Signal;HPM_P1;HPM_P2
2022/07/03 00:02:03;;;;;;;0.10;0.10;;;27.10;51.10;;;;;;5045190;28;20367;-63
2022/07/03 00:04:30;;;;;;;0.10;0.10;;;27.10;51.10;;;;;;5043777;28;20442;-63
2022/07/03 00:06:57;;;;;;;0.10;0.10;;;27.00;51.00;;;;;;5045461;28;20437;-63
2022/07/03 00:09:25;;;;;;;0.20;0.20;;;27.00;51.00;;;;;;5045063;28;20417;-63
2022/07/03 00:11:52;;;;;;;0.10;0.10;;;27.00;51.00;;;;;;5045051;28;20185;-62
2022/07/03 00:14:19;;;;;;;0.32;0.20;;;27.00;51.00;;;;;;5045177;28;20095;-63
2022/07/03 00:16:46;;;;;;;0.00;0.00;;;27.00;51.10;;;;;;5045236;28;20502;-63
2022/07/03 00:19:13;;;;;;;0.20;0.20;;;27.00;51.10;;;;;;5045385;28;20372;-63
2022/07/03 00:21:52;;;;;;;0.10;0.10;;;27.00;51.10;;;;;;5045149;28;20139;-63
2022/07/03 00:24:31;;;;;;;0.10;0.10;;;27.00;51.10;;;;;;5045332;28;20044;-63
2022/07/03 00:27:00;;;;;;;0.10;0.10;;;27.00;51.20;;;;;;5044526;28;20485;-64
2022/07/03 00:29:31;;;;;;;0.28;0.10;;;27.00;51.10;;;;;;5045153;28;20387;-63
2022/07/03 00:32:01;;;;;;;0.25;0.10;;;27.00;51.10;;;;;;5043865;28;20053;-63
2022/07/03 00:34:29;;;;;;;0.10;0.10;;;27.00;51.20;;;;;;5044857;28;20076;-63
2022/07/03 00:36:57;;;;;;;0.10;0.10;;;27.00;51.20;;;;;;5044923;28;20604;-62
2022/07/03 00:39:24;;;;;;;0.10;0.10;;;27.00;51.20;;;;;;5044283;28;20140;-63
2022/07/03 00:42:05;;;;;;;0.00;0.00;;;27.00;51.20;;;;;;5045023;28;20560;-63
2022/07/03 00:44:42;;;;;;;0.10;0.10;;;27.00;51.20;;;;;;5043352;28;20048;-63
2022/07/03 00:47:12;;;;;;;0.22;0.22;;;27.00;51.20;;;;;;5043893;28;20049;-63
2022/07/03 00:49:43;;;;;;;0.20;0.20;;;27.00;51.20;;;;;;5044998;28;20045;-63
2022/07/03 00:52:12;;;;;;;0.10;0.10;;;27.00;51.20;;;;;;5044443;28;20575;-63
2022/07/03 00:54:44;;;;;;;0.20;0.20;;;27.00;51.20;;;;;;5043941;28;20490;-63
2022/07/03 00:57:16;;;;;;;0.13;0.13;;;27.00;51.20;;;;;;5044257;28;20144;-63
2022/07/03 00:59:44;;;;;;;0.28;0.10;;;27.00;51.20;;;;;;5044925;28;20077;-64
2022/07/03 01:02:34;;;;;;;0.10;0.10;;;27.00;51.20;;;;;;5044256;28;20057;-65
2022/07/03 01:05:32;;;;;;;0.17;0.17;;;27.00;51.20;;;;;;5044645;28;20049;-63
2022/07/03 01:08:39;;;;;;;0.00;0.00;;;27.00;51.30;;;;;;5045052;28;20132;-63
2022/07/03 01:11:37;;;;;;;0.10;0.10;;;27.00;51.20;;;;;;5043360;28;20575;-62
2022/07/03 01:14:21;;;;;;;0.10;0.10;;;26.90;51.20;;;;;;5044608;28;20486;-63
2022/07/03 01:17:03;;;;;;;0.10;0.10;;;26.90;51.20;;;;;;5042849;28;20283;-62
2022/07/03 01:19:42;;;;;;;0.10;0.10;;;26.90;51.20;;;;;;5045027;28;20084;-63
2022/07/03 01:22:43;;;;;;;0.17;0.10;;;26.90;51.20;;;;;;5044691;28;20106;-63
2022/07/03 01:25:26;;;;;;;0.17;0.17;;;26.90;51.30;;;;;;5048638;28;20528;-63
2022/07/03 01:28:15;;;;;;;0.10;0.10;;;26.90;51.30;;;;;;5047649;28;20044;-63
2022/07/03 01:30:48;;;;;;;0.20;0.20;;;26.90;51.30;;;;;;5048366;28;20049;-63
2022/07/03 01:33:21;;;;;;;0.10;0.10;;;26.90;51.30;;;;;;5047839;28;20257;-63
2022/07/03 01:36:05;;;;;;;0.10;0.10;;;26.90;51.40;;;;;;5048735;28;20064;-63
2022/07/03 01:38:37;;;;;;;0.28;0.17;;;26.90;51.40;;;;;;5046836;28;20076;-63
2022/07/03 01:41:07;;;;;;;0.20;0.20;;;26.90;51.40;;;;;;5045962;28;20107;-63
2022/07/03 01:43:41;;;;;;;0.20;0.20;;;26.90;51.40;;;;;;5046459;28;20108;-63
2022/07/03 01:46:11;;;;;;;0.10;0.10;;;26.90;51.50;;;;;;5047467;28;20750;-63
2022/07/03 01:48:42;;;;;;;0.10;0.10;;;26.90;51.40;;;;;;5048099;28;20045;-63
2022/07/03 01:51:14;;;;;;;0.10;0.10;;;26.90;51.40;;;;;;5047487;28;20540;-63
2022/07/03 01:53:47;;;;;;;0.20;0.20;;;26.90;51.40;;;;;;5047829;28;20055;-63
2022/07/03 01:56:16;;;;;;;0.10;0.10;;;26.90;51.40;;;;;;5048196;28;20143;-63
2022/07/03 01:58:43;;;;;;;0.10;0.10;;;26.90;51.40;;;;;;5047523;28;20072;-62
2022/07/03 02:01:30;;;;;;;0.22;0.10;;;26.80;51.40;;;;;;5047583;28;20147;-63
2022/07/03 02:04:07;;;;;;;0.10;0.10;;;26.90;51.40;;;;;;5047172;28;20444;-62
2022/07/03 02:06:53;;;;;;;0.10;0.10;;;26.90;51.40;;;;;;5045947;28;20052;-63
2022/07/03 02:09:27;;;;;;;0.10;0.10;;;26.90;51.40;;;;;;5047974;28;20478;-62
2022/07/03 02:11:54;;;;;;;0.10;0.10;;;26.90;51.40;;;;;;5047926;28;20128;-62
2022/07/03 02:14:35;;;;;;;0.10;0.10;;;26.90;51.40;;;;;;5047689;28;20490;-62
2022/07/03 02:17:18;;;;;;;0.10;0.10;;;26.90;51.40;;;;;;5047037;28;20268;-61
2022/07/03 02:20:03;;;;;;;0.10;0.10;;;26.90;51.40;;;;;;5046623;28;20084;-62
2022/07/03 02:22:42;;;;;;;0.10;0.10;;;26.90;51.40;;;;;;5045767;28;20494;-62
2022/07/03 02:25:18;;;;;;;0.10;0.10;;;26.80;51.30;;;;;;5047927;28;20382;-62
2022/07/03 02:28:16;;;;;;;0.38;0.38;;;26.90;51.40;;;;;;5047335;28;20332;-62
2022/07/03 02:30:48;;;;;;;0.15;0.15;;;26.90;51.40;;;;;;5047456;28;20063;-62
2022/07/03 02:33:21;;;;;;;0.13;0.10;;;26.90;51.40;;;;;;5046494;28;20179;-62
2022/07/03 02:35:50;;;;;;;0.20;0.13;;;26.90;51.50;;;;;;5045844;28;20076;-62
2022/07/03 02:38:19;;;;;;;0.10;0.10;;;26.90;51.50;;;;;;5047130;28;20398;-61
2022/07/03 02:41:02;;;;;;;0.25;0.25;;;26.80;51.40;;;;;;5045117;28;20049;-62
2022/07/03 02:43:55;;;;;;;0.10;0.10;;;26.90;51.50;;;;;;5045450;28;20052;-63
2022/07/03 02:46:48;;;;;;;0.10;0.10;;;26.90;51.50;;;;;;5046887;28;20114;-62
2022/07/03 02:49:54;;;;;;;0.10;0.10;;;26.80;51.40;;;;;;5046574;28;20250;-62
2022/07/03 02:52:50;;;;;;;0.10;0.10;;;26.80;51.40;;;;;;5045406;28;20045;-62
2022/07/03 02:55:47;;;;;;;0.10;0.10;;;26.80;51.40;;;;;;5045934;28;20087;-61
2022/07/03 02:58:54;;;;;;;0.10;0.10;;;26.80;51.50;;;;;;5045020;28;20091;-62
2022/07/03 03:01:37;;;;;;;0.35;0.28;;;26.80;51.50;;;;;;5046740;28;20509;-61
2022/07/03 03:04:14;;;;;;;0.10;0.10;;;26.80;51.50;;;;;;5046521;28;20083;-62
2022/07/03 03:06:52;;;;;;;0.30;0.30;;;26.80;51.50;;;;;;5046222;28;20338;-62
2022/07/03 03:09:31;;;;;;;0.10;0.10;;;26.80;51.50;;;;;;5046459;28;20488;-62
2022/07/03 03:12:01;;;;;;;0.10;0.10;;;26.80;51.50;;;;;;5045465;28;20080;-62
2022/07/03 03:14:39;;;;;;;0.20;0.20;;;26.80;51.50;;;;;;5045985;28;20060;-62
2022/07/03 03:17:07;;;;;;;0.20;0.20;;;26.80;51.50;;;;;;5046743;28;20511;-61
2022/07/03 03:19:41;;;;;;;0.08;0.08;;;26.80;51.60;;;;;;5045764;28;20440;-62
2022/07/03 03:22:27;;;;;;;0.10;0.10;;;26.80;51.50;;;;;;5046232;28;20053;-62
2022/07/03 03:24:55;;;;;;;0.20;0.20;;;26.80;51.50;;;;;;5044400;28;20084;-62
2022/07/03 03:27:22;;;;;;;0.30;0.10;;;26.90;51.50;;;;;;5045690;28;20045;-61
2022/07/03 03:29:50;;;;;;;0.10;0.10;;;26.90;51.50;;;;;;5045154;28;20501;-61
2022/07/03 03:32:18;;;;;;;0.32;0.10;;;26.90;51.40;;;;;;5045758;28;20132;-62
2022/07/03 03:34:46;;;;;;;0.13;0.13;;;26.90;51.40;;;;;;5045833;28;20049;-61
2022/07/03 03:37:13;;;;;;;0.20;0.20;;;26.90;51.30;;;;;;5045504;28;20106;-62
2022/07/03 03:39:40;;;;;;;0.10;0.10;;;26.90;51.20;;;;;;5046031;28;20048;-62
2022/07/03 03:42:08;;;;;;;0.20;0.20;;;26.90;51.20;;;;;;5045206;28;20045;-61
2022/07/03 03:44:35;;;;;;;0.10;0.10;;;26.90;51.10;;;;;;5045631;28;20525;-61
2022/07/03 03:47:03;;;;;;;0.20;0.20;;;26.90;51.10;;;;;;5044230;28;20108;-62
2022/07/03 03:49:30;;;;;;;0.10;0.10;;;27.00;51.10;;;;;;5045769;28;20505;-61
2022/07/03 03:51:57;;;;;;;0.20;0.20;;;27.00;51.00;;;;;;5045464;28;20091;-62
2022/07/03 03:54:24;;;;;;;0.10;0.10;;;27.00;51.00;;;;;;5045185;28;20529;-61
2022/07/03 03:56:51;;;;;;;0.10;0.10;;;27.00;51.00;;;;;;5045360;28;20095;-62
2022/07/03 03:59:18;;;;;;;0.10;0.10;;;27.00;50.90;;;;;;5045396;28;20053;-61
2022/07/03 04:01:47;;;;;;;0.43;0.43;;;27.00;50.90;;;;;;5045049;28;20485;-61
2022/07/03 04:04:17;;;;;;;0.10;0.10;;;27.00;50.80;;;;;;5045353;28;20041;-62
2022/07/03 04:06:44;;;;;;;;;;;27.10;50.80;;;;;;5046306;28;20398;-61
2022/07/03 04:09:11;;;;;;;1.27;0.20;;;27.10;50.80;;;;;;5045665;28;19920;-62
2022/07/03 04:11:38;;;;;;;0.63;0.20;;;27.10;50.70;;;;;;5045136;28;20489;-61
2022/07/03 04:14:06;;;;;;;0.10;0.10;;;27.10;50.70;;;;;;5045362;28;20122;-61
2022/07/03 04:16:34;;;;;;;0.10;0.10;;;27.20;50.80;;;;;;5045387;28;20429;-63
2022/07/03 04:19:01;;;;;;;0.30;0.20;;;27.20;51.20;;;;;;5044717;28;20425;-62
2022/07/03 04:21:28;;;;;;;0.20;0.20;;;27.20;50.60;;;;;;5044800;28;20106;-62
2022/07/03 04:23:56;;;;;;;0.10;0.10;;;27.20;50.60;;;;;;5045808;28;20049;-61
2022/07/03 04:26:23;;;;;;;0.20;0.20;;;27.20;50.50;;;;;;5044579;28;20048;-62
2022/07/03 04:28:50;;;;;;;0.15;0.15;;;27.20;50.50;;;;;;5044955;28;20072;-62
2022/07/03 04:31:17;;;;;;;0.20;0.20;;;27.30;50.50;;;;;;5044668;28;20084;-62
2022/07/03 04:33:44;;;;;;;2.08;0.10;;;27.30;50.40;;;;;;5045487;28;20049;-62
2022/07/03 04:36:14;;;;;;;0.20;0.20;;;27.30;50.40;;;;;;5044607;28;20072;-61
2022/07/03 04:38:42;;;;;;;0.10;0.10;;;27.30;50.30;;;;;;5045393;28;20282;-61
2022/07/03 04:41:10;;;;;;;0.13;0.13;;;27.30;50.30;;;;;;5044668;28;20132;-61
2022/07/03 04:43:37;;;;;;;0.63;0.43;;;27.40;50.30;;;;;;5044896;28;20493;-62
2022/07/03 04:46:04;;;;;;;0.20;0.20;;;27.40;50.30;;;;;;5044767;28;20084;-61
2022/07/03 04:48:32;;;;;;;0.10;0.10;;;27.40;50.20;;;;;;5044736;28;20049;-61
2022/07/03 04:50:59;;;;;;;0.10;0.10;;;27.40;50.20;;;;;;5044851;28;20446;-61
2022/07/03 04:53:26;;;;;;;1.38;0.17;;;27.50;50.20;;;;;;5044548;28;20049;-61
2022/07/03 04:55:53;;;;;;;0.35;0.35;;;27.40;50.10;;;;;;5045232;28;20127;-62
2022/07/03 04:58:21;;;;;;;0.10;0.10;;;27.40;50.10;;;;;;5047262;28;20053;-62
2022/07/03 05:00:48;;;;;;;0.15;0.13;;;27.50;50.10;;;;;;5048793;28;20527;-62
2022/07/03 05:03:15;;;;;;;0.20;0.20;;;27.50;50.10;;;;;;5048749;28;20137;-62
2022/07/03 05:05:42;;;;;;;0.20;0.20;;;27.50;50.00;;;;;;5048234;28;20098;-62
2022/07/03 05:08:09;;;;;;;0.30;0.30;;;27.50;50.00;;;;;;5047740;28;20467;-62
2022/07/03 05:10:36;;;;;;;0.35;0.35;;;27.40;49.90;;;;;;5048229;28;20072;-62
2022/07/03 05:13:04;;;;;;;0.30;0.30;;;27.40;49.90;;;;;;5048364;28;20041;-61
2022/07/03 05:15:31;;;;;;;0.40;0.40;;;27.30;50.00;;;;;;5048582;28;20072;-62
2022/07/03 05:17:58;;;;;;;0.40;0.32;;;27.20;50.20;;;;;;5048216;28;20601;-62
2022/07/03 05:20:27;;;;;;;0.40;0.40;;;27.00;50.50;;;;;;5048003;28;20087;-61
2022/07/03 05:22:56;;;;;;;0.50;0.50;;;26.90;50.70;;;;;;5048429;28;20559;-62
2022/07/03 05:25:25;;;;;;;0.55;0.55;;;26.70;51.00;;;;;;5048056;28;20075;-61
2022/07/03 05:27:55;;;;;;;0.50;0.50;;;26.50;51.20;;;;;;5048423;28;20068;-62
2022/07/03 05:30:23;;;;;;;0.75;0.63;;;26.30;51.20;;;;;;5047778;28;20107;-61
2022/07/03 05:32:52;;;;;;;0.70;0.70;;;26.00;51.40;;;;;;5048136;28;20047;-61
2022/07/03 05:35:19;;;;;;;0.65;0.65;;;25.70;51.50;;;;;;5047073;28;20128;-61
2022/07/03 05:37:46;;;;;;;1.38;0.70;;;25.50;51.70;;;;;;5047834;28;20045;-61
2022/07/03 05:40:13;;;;;;;0.55;0.50;;;25.30;52.00;;;;;;5048361;28;20069;-61
2022/07/03 05:42:41;;;;;;;0.85;0.85;;;25.00;52.00;;;;;;5048172;28;20160;-61
2022/07/03 05:45:09;;;;;;;0.80;0.80;;;24.80;52.10;;;;;;5047924;28;20107;-61
2022/07/03 05:47:36;;;;;;;0.85;0.85;;;24.70;52.20;;;;;;5047803;28;20300;-61
2022/07/03 05:50:03;;;;;;;1.00;0.80;;;24.50;52.00;;;;;;5047573;28;20052;-62
2022/07/03 05:52:30;;;;;;;0.73;0.73;;;24.30;52.20;;;;;;5048113;28;20077;-61
2022/07/03 05:54:57;;;;;;;0.90;0.90;;;24.20;52.80;;;;;;5046245;28;20091;-61
2022/07/03 05:57:25;;;;;;;0.95;0.95;;;24.00;52.30;;;;;;5047360;28;20057;-61
2022/07/03 05:59:59;;;;;;;1.02;1.00;;;23.90;52.20;;;;;;5047677;28;20052;-62
2022/07/03 06:02:26;;;;;;;1.00;1.00;;;23.80;52.50;;;;;;5047545;28;20595;-61
2022/07/03 06:04:53;;;;;;;0.98;0.98;;;23.70;52.50;;;;;;5047682;28;20041;-61
2022/07/03 06:07:21;;;;;;;0.98;0.98;;;23.60;52.70;;;;;;5047513;28;20118;-61
2022/07/03 06:09:48;;;;;;;1.60;1.50;;;23.50;52.90;;;;;;5047368;28;20052;-61
2022/07/03 06:12:16;;;;;;;1.40;1.40;;;23.40;53.30;;;;;;5047828;28;20056;-61
2022/07/03 06:14:43;;;;;;;0.88;0.88;;;23.30;53.40;;;;;;5047695;28;20322;-61
2022/07/03 06:17:10;;;;;;;1.45;1.23;;;23.20;53.50;;;;;;5047008;28;20076;-61
2022/07/03 06:19:37;;;;;;;2.00;1.20;;;23.20;53.90;;;;;;5047285;28;20230;-61
2022/07/03 06:22:04;;;;;;;0.93;0.93;;;23.10;54.10;;;;;;5046435;28;20045;-62
2022/07/03 06:24:31;;;;;;;1.17;1.17;;;23.10;54.30;;;;;;5047536;28;20076;-61
2022/07/03 06:26:58;;;;;;;1.50;1.40;;;23.10;54.20;;;;;;5046630;28;20045;-61
2022/07/03 06:29:25;;;;;;;1.00;1.00;;;23.10;54.60;;;;;;5047577;28;20045;-61
2022/07/03 06:31:53;;;;;;;1.35;1.25;;;23.00;54.60;;;;;;5047302;28;20485;-61
2022/07/03 06:34:20;;;;;;;1.60;1.50;;;23.10;54.60;;;;;;5046856;28;20115;-61
2022/07/03 06:36:47;;;;;;;1.65;1.55;;;23.10;54.70;;;;;;5046721;28;20091;-61
2022/07/03 06:39:14;;;;;;;1.75;1.60;;;23.10;54.90;;;;;;5047668;28;20422;-61
2022/07/03 06:41:42;;;;;;;1.45;1.35;;;23.10;55.00;;;;;;5046867;28;20041;-61
2022/07/03 06:44:09;;;;;;;2.08;1.30;;;23.00;55.00;;;;;;5046584;28;20529;-61
2022/07/03 06:46:36;;;;;;;1.63;1.52;;;23.00;55.10;;;;;;5046537;28;20561;-61
2022/07/03 06:49:03;;;;;;;1.67;1.58;;;23.10;55.40;;;;;;5046445;28;20299;-61
2022/07/03 06:51:30;;;;;;;1.40;1.40;;;23.00;55.50;;;;;;5045501;28;20045;-61
2022/07/03 06:53:57;;;;;;;1.77;1.60;;;23.00;55.60;;;;;;5046331;28;20478;-61
2022/07/03 06:56:24;;;;;;;1.10;1.10;;;23.00;55.70;;;;;;5046688;28;20144;-61
2022/07/03 06:58:56;;;;;;;1.70;1.60;;;22.90;55.90;;;;;;5046688;28;20106;-61
2022/07/03 07:01:24;;;;;;;1.70;1.60;;;22.90;56.20;;;;;;5046434;28;20053;-61
2022/07/03 07:03:51;;;;;;;1.90;1.80;;;23.00;56.10;;;;;;5046316;28;20544;-61
2022/07/03 07:06:18;;;;;;;1.90;1.80;;;23.00;56.20;;;;;;5046441;28;20052;-61
2022/07/03 07:08:46;;;;;;;2.25;2.05;;;23.00;56.20;;;;;;5046129;28;20053;-61
2022/07/03 07:11:13;;;;;;;1.38;1.27;;;23.00;56.30;;;;;;5046578;28;20084;-61
2022/07/03 07:13:40;;;;;;;1.70;1.60;;;23.10;56.20;;;;;;5046818;28;20426;-61
2022/07/03 07:16:08;;;;;;;2.20;2.05;;;23.10;56.40;;;;;;5045831;28;20111;-61
2022/07/03 07:18:35;;;;;;;1.90;1.80;;;23.00;56.40;;;;;;5045759;28;20064;-61
2022/07/03 07:21:02;;;;;;;1.60;1.50;;;23.00;56.40;;;;;;5046020;28;20049;-61
2022/07/03 07:23:29;;;;;;;2.20;2.00;;;23.00;56.60;;;;;;5045878;28;20172;-61
2022/07/03 07:25:56;;;;;;;1.90;1.80;;;23.00;56.70;;;;;;5046410;28;20513;-61
2022/07/03 07:28:24;;;;;;;2.05;1.95;;;23.00;56.60;;;;;;5045948;28;20085;-61
2022/07/03 07:30:54;;;;;;;2.05;1.90;;;23.00;56.70;;;;;;5046111;28;20069;-61
2022/07/03 07:33:22;;;;;;;2.17;1.98;;;23.00;56.80;;;;;;5045504;28;20550;-61
2022/07/03 07:35:49;;;;;;;2.28;2.17;;;23.10;56.70;;;;;;5046163;28;20497;-61
2022/07/03 07:38:17;;;;;;;2.20;2.10;;;23.10;56.80;;;;;;5045867;28;20118;-62
2022/07/03 07:40:44;;;;;;;1.80;1.70;;;23.10;56.80;;;;;;5045507;28;20052;-61
2022/07/03 07:43:12;;;;;;;2.00;1.90;;;23.10;56.80;;;;;;5045745;28;20118;-61
2022/07/03 07:45:39;;;;;;;2.05;1.95;;;23.00;56.80;;;;;;5046113;28;20505;-61
2022/07/03 07:48:06;;;;;;;1.83;1.60;;;23.10;56.90;;;;;;5044263;28;20084;-61
2022/07/03 07:50:34;;;;;;;1.98;1.88;;;23.10;56.90;;;;;;5044370;28;20167;-61
2022/07/03 07:53:01;;;;;;;1.88;1.77;;;23.10;56.90;;;;;;5045743;28;20103;-61
2022/07/03 07:55:28;;;;;;;1.80;1.70;;;23.10;56.80;;;;;;5045757;28;20341;-61
2022/07/03 07:57:55;;;;;;;2.63;2.42;;;23.20;56.80;;;;;;5045607;28;20120;-61
2022/07/03 08:00:22;;;;;;;2.55;1.90;;;23.10;56.70;;;;;;5045730;28;20048;-62
2022/07/03 08:05:36;;;;;;;1.60;1.55;;;23.10;56.80;;;;;;5044679;28;20341;-61
2022/07/03 08:08:13;;;;;;;2.45;2.25;;;23.10;56.80;;;;;;5045549;28;20124;-61
2022/07/03 08:10:43;;;;;;;2.03;1.92;;;23.10;57.40;;;;;;5045494;28;20091;-61
2022/07/03 08:13:11;;;;;;;1.92;1.83;;;23.10;56.90;;;;;;5045029;28;20466;-61
2022/07/03 08:15:39;;;;;;;2.20;2.00;;;23.10;56.80;;;;;;5045651;28;20505;-61
2022/07/03 08:18:06;;;;;;;1.50;1.50;;;23.20;56.80;;;;;;5045198;28;20104;-61
2022/07/03 08:20:34;;;;;;;2.33;2.13;;;23.10;56.90;;;;;;5045094;28;20095;-61
2022/07/03 08:23:03;;;;;;;2.28;2.08;;;23.10;56.90;;;;;;5044574;28;20633;-62
2022/07/03 08:25:30;;;;;;;2.40;2.30;;;23.10;56.90;;;;;;5045189;28;20059;-62
2022/07/03 08:27:58;;;;;;;2.03;1.92;;;23.20;56.90;;;;;;5044912;28;20083;-62
2022/07/03 08:30:25;;;;;;;2.08;1.98;;;23.20;56.80;;;;;;5044792;28;20133;-62
2022/07/03 08:32:56;;;;;;;2.28;2.17;;;23.20;56.80;;;;;;5045353;28;20103;-62
2022/07/03 08:35:24;;;;;;;2.08;1.98;;;23.20;56.60;;;;;;5044932;28;20048;-61
2022/07/03 08:37:51;;;;;;;1.70;1.60;;;23.20;56.80;;;;;;5044950;28;20045;-65
2022/07/03 08:40:20;;;;;;;1.90;1.80;;;23.20;56.70;;;;;;5044822;28;20041;-62
2022/07/03 08:42:49;;;;;;;2.08;1.98;;;23.20;56.60;;;;;;5045064;28;20045;-61
2022/07/03 08:45:18;;;;;;;1.98;1.88;;;23.20;56.50;;;;;;5044689;28;20085;-61
2022/07/03 08:47:48;;;;;;;2.67;2.47;;;23.20;56.40;;;;;;5044686;28;20135;-61
2022/07/03 08:50:17;;;;;;;1.70;1.60;;;23.20;56.40;;;;;;5044338;28;20524;-61
2022/07/03 08:52:46;;;;;;;2.03;1.92;;;23.20;56.40;;;;;;5045369;28;20444;-61
2022/07/03 08:55:16;;;;;;;1.90;1.73;;;23.20;56.40;;;;;;5043794;28;20532;-61
2022/07/03 08:57:44;;;;;;;;;;;23.20;56.40;;;;;;5045715;28;20045;-61
2022/07/03 09:00:16;;;;;;;1.95;1.85;;;23.20;56.30;;;;;;5044529;28;19982;-61
2022/07/03 09:02:46;;;;;;;1.60;1.58;;;23.20;56.30;;;;;;5045045;28;20040;-62
2022/07/03 09:05:15;;;;;;;1.80;1.70;;;23.20;56.20;;;;;;5044813;28;20087;-61
2022/07/03 09:07:44;;;;;;;2.03;1.92;;;23.20;56.10;;;;;;5044151;28;20053;-61
2022/07/03 09:10:13;;;;;;;1.88;1.77;;;23.20;56.10;;;;;;5043664;28;20049;-61
2022/07/03 09:12:42;;;;;;;1.80;1.70;;;23.10;56.30;;;;;;5043110;28;20132;-61
2022/07/03 09:15:10;;;;;;;1.80;1.70;;;23.10;56.30;;;;;;5044815;28;20049;-61
2022/07/03 09:17:38;;;;;;;2.08;1.98;;;23.10;56.30;;;;;;5044349;28;20551;-62
2022/07/03 09:20:07;;;;;;;1.80;1.70;;;23.10;56.30;;;;;;5043080;28;20545;-62
2022/07/03 09:22:36;;;;;;;1.60;1.50;;;23.10;56.30;;;;;;5044940;28;20084;-62
2022/07/03 09:25:08;;;;;;;1.73;1.63;;;23.10;56.20;;;;;;5044047;28;20577;-61
2022/07/03 09:27:37;;;;;;;2.33;2.13;;;23.10;56.20;;;;;;5043888;28;20112;-61
2022/07/03 09:30:09;;;;;;;1.77;1.67;;;23.10;56.30;;;;;;5043703;28;20257;-61
2022/07/03 09:32:44;;;;;;;1.60;1.50;;;23.10;56.20;;;;;;5044895;28;20146;-62
2022/07/03 09:35:18;;;;;;;1.85;1.75;;;23.10;56.30;;;;;;5044478;28;20052;-61
2022/07/03 09:37:51;;;;;;;1.70;1.60;;;23.10;56.40;;;;;;5044097;28;20049;-62
2022/07/03 09:40:19;;;;;;;1.70;1.60;;;23.10;56.30;;;;;;5044129;28;20044;-61
2022/07/03 09:43:04;;;;;;;1.55;1.55;;;23.10;56.30;;;;;;5044270;28;20178;-61
2022/07/03 09:45:52;;;;;;;1.83;1.73;;;23.10;56.30;;;;;;5048085;28;20106;-61
2022/07/03 09:48:33;;;;;;;1.60;1.50;;;23.20;56.30;;;;;;5047513;28;20045;-61
2022/07/03 09:51:15;;;;;;;2.00;1.90;;;23.20;56.30;;;;;;5048111;28;20063;-61
2022/07/03 09:53:43;;;;;;;;;;;23.20;56.30;;;;;;5048283;28;20464;-61
2022/07/03 09:56:11;;;;;;;1.80;1.70;;;23.10;56.40;;;;;;5047744;28;20007;-61
2022/07/03 09:58:39;;;;;;;2.22;2.13;;;23.20;56.40;;;;;;5046961;28;20049;-62
2022/07/03 10:01:22;;;;;;;1.75;1.65;;;23.10;56.20;;;;;;5047736;28;20130;-61
2022/07/03 10:03:49;;;;;;;1.65;1.55;;;23.20;56.10;;;;;;5047709;28;20052;-62
2022/07/03 10:06:16;;;;;;;1.98;1.88;;;23.20;56.10;;;;;;5048049;28;20052;-61
2022/07/03 10:08:44;;;;;;;1.67;1.58;;;23.20;55.90;;;;;;5047209;28;20367;-62
2022/07/03 10:11:11;;;;;;;1.60;1.50;;;23.10;55.90;;;;;;5048218;28;20102;-61
2022/07/03 10:13:40;;;;;;;1.50;1.40;;;23.10;55.80;;;;;;5047051;28;20529;-61
2022/07/03 10:16:07;;;;;;;1.95;1.85;;;23.10;55.70;;;;;;5047891;28;20479;-62
2022/07/03 10:18:42;;;;;;;1.98;1.88;;;23.20;55.50;;;;;;5046977;28;20685;-61
2022/07/03 10:21:12;;;;;;;1.30;1.30;;;23.20;55.30;;;;;;5047469;28;20132;-62
2022/07/03 10:23:41;;;;;;;1.42;1.42;;;23.10;55.40;;;;;;5047735;28;20048;-62
2022/07/03 10:26:12;;;;;;;1.80;1.70;;;23.10;55.20;;;;;;5045405;28;20158;-61
2022/07/03 10:28:40;;;;;;;1.50;1.40;;;23.10;55.20;;;;;;5047368;28;20049;-61
2022/07/03 10:31:08;;;;;;;1.65;1.55;;;23.10;55.20;;;;;;5047049;28;20076;-61
2022/07/03 10:33:37;;;;;;;1.73;1.63;;;23.10;55.20;;;;;;5046122;28;20056;-61
2022/07/03 10:36:05;;;;;;;1.85;1.75;;;23.00;55.10;;;;;;5047335;28;20084;-61
2022/07/03 10:38:42;;;;;;;1.52;1.42;;;23.10;55.20;;;;;;5047051;28;20041;-61
2022/07/03 10:47:03;;;;;;;1.67;1.35;;;23.00;55.40;;;;;;5046501;28;20088;-61
2022/07/03 10:49:34;;;;;;;1.83;1.73;;;23.00;55.50;;;;;;5046407;28;20057;-61
2022/07/03 10:52:03;;;;;;;1.52;1.42;;;23.00;55.50;;;;;;5046633;28;20329;-62
2022/07/03 10:54:37;;;;;;;1.23;1.23;;;23.00;56.10;;;;;;5044974;28;20045;-61
2022/07/03 10:57:06;;;;;;;1.75;1.65;;;23.00;55.50;;;;;;5046376;28;20045;-63
2022/07/03 10:59:56;;;;;;;1.52;1.42;;;23.00;55.70;;;;;;5046871;28;20553;-61
2022/07/03 11:02:42;;;;;;;1.13;1.13;;;23.00;56.30;;;;;;5045309;28;20053;-61
2022/07/03 11:05:20;;;;;;;1.33;1.23;;;23.00;55.90;;;;;;5046271;28;20422;-61
2022/07/03 11:08:07;;;;;;;1.35;1.27;;;23.00;55.80;;;;;;5046311;28;20107;-61
2022/07/03 11:10:40;;;;;;;1.65;1.55;;;23.00;55.70;;;;;;5045124;28;20581;-61
2022/07/03 11:13:10;;;;;;;1.60;1.50;;;23.00;55.70;;;;;;5046642;28;20122;-61
2022/07/03 11:15:53;;;;;;;1.75;1.65;;;23.00;55.80;;;;;;5046108;28;20049;-61
2022/07/03 11:18:32;;;;;;;1.50;1.40;;;23.00;55.80;;;;;;5044784;28;20498;-61
2022/07/03 11:21:21;;;;;;;1.93;1.83;;;23.10;55.80;;;;;;5046179;28;20061;-62
2022/07/03 11:24:14;;;;;;;1.52;1.42;;;23.10;55.80;;;;;;5046485;28;20361;-61
2022/07/03 11:26:41;;;;;;;1.90;1.70;;;23.10;55.70;;;;;;5045916;28;20045;-61
2022/07/03 11:29:25;;;;;;;1.30;1.30;;;23.10;55.80;;;;;;5046428;28;20044;-62
2022/07/03 11:31:52;;;;;;;1.65;1.55;;;23.20;55.80;;;;;;5045641;28;20075;-64
2022/07/03 11:34:21;;;;;;;1.77;1.67;;;23.20;55.90;;;;;;5044855;28;20130;-62
2022/07/03 11:36:48;;;;;;;1.15;1.15;;;23.20;55.90;;;;;;5044787;28;20068;-61
2022/07/03 11:39:19;;;;;;;1.40;1.30;;;23.10;55.90;;;;;;5045717;28;20057;-61
2022/07/03 11:41:47;;;;;;;1.65;1.55;;;23.20;56.00;;;;;;5045010;28;20085;-61
2022/07/03 11:44:19;;;;;;;1.17;1.17;;;23.20;56.00;;;;;;5045690;28;20546;-61
2022/07/03 11:46:48;;;;;;;1.50;1.40;;;23.20;55.90;;;;;;5044670;28;20497;-61
2022/07/03 11:49:24;;;;;;;1.35;1.33;;;23.20;55.90;;;;;;5045482;28;20044;-61
2022/07/03 11:51:57;;;;;;;1.80;1.70;;;23.20;55.90;;;;;;5046254;28;20452;-62
2022/07/03 11:54:25;;;;;;;1.73;1.63;;;23.20;56.00;;;;;;5045992;28;20080;-61
2022/07/03 11:56:52;;;;;;;1.70;1.60;;;23.20;56.10;;;;;;5045577;28;20072;-62
2022/07/03 11:59:20;;;;;;;1.40;1.30;;;23.20;56.20;;;;;;5044136;28;20484;-61
2022/07/03 12:01:50;;;;;;;1.10;1.10;;;23.20;56.30;;;;;;5045455;28;20528;-61
2022/07/03 12:04:19;;;;;;;1.50;1.40;;;23.20;56.40;;;;;;5044296;28;20453;-61
2022/07/03 12:06:57;;;;;;;1.25;1.25;;;23.20;56.40;;;;;;5045504;28;20452;-61
2022/07/03 12:09:34;;;;;;;1.60;1.50;;;23.30;56.50;;;;;;5045445;28;20094;-61
2022/07/03 12:12:03;;;;;;;1.50;1.40;;;23.30;56.40;;;;;;5045851;28;20079;-62
2022/07/03 12:14:40;;;;;;;1.30;1.30;;;23.30;56.50;;;;;;5044857;28;20076;-61
2022/07/03 12:17:10;;;;;;;1.60;1.52;;;23.30;56.50;;;;;;5045318;28;20067;-61
2022/07/03 12:19:43;;;;;;;1.52;1.42;;;23.30;56.50;;;;;;5044960;28;20091;-61
2022/07/03 12:22:10;;;;;;;1.63;1.52;;;23.30;56.70;;;;;;5044788;28;20087;-61
2022/07/03 12:24:38;;;;;;;1.63;1.52;;;23.30;56.70;;;;;;5045355;28;20111;-61
2022/07/03 12:27:06;;;;;;;1.52;1.45;;;23.30;56.70;;;;;;5045323;28;20057;-62
2022/07/03 12:29:35;;;;;;;1.42;1.40;;;23.30;56.60;;;;;;5044636;28;20128;-62
2022/07/03 12:32:09;;;;;;;1.52;1.52;;;23.30;56.70;;;;;;5044779;28;20095;-63
2022/07/03 12:34:38;;;;;;;1.40;1.30;;;23.30;56.70;;;;;;5044722;28;20314;-62
2022/07/03 12:37:06;;;;;;;1.20;1.20;;;23.30;56.70;;;;;;5045074;28;20049;-62
2022/07/03 12:39:47;;;;;;;1.58;1.48;;;23.40;56.60;;;;;;5045212;28;20497;-62
2022/07/03 12:42:20;;;;;;;1.30;1.30;;;23.40;56.50;;;;;;5043730;28;20482;-62
2022/07/03 12:44:58;;;;;;;1.65;1.55;;;23.40;56.50;;;;;;5044666;28;20569;-61
2022/07/03 12:47:26;;;;;;;1.52;1.48;;;23.40;56.50;;;;;;5044884;28;20122;-62
2022/07/03 12:50:00;;;;;;;1.30;1.20;;;23.40;56.40;;;;;;5045146;28;20490;-62
2022/07/03 12:52:29;;;;;;;1.13;1.13;;;23.40;56.40;;;;;;5045408;28;20157;-62
2022/07/03 12:54:58;;;;;;;1.25;1.25;;;23.40;56.40;;;;;;5042882;28;20510;-62
2022/07/03 13:00:19;;;;;;;1.30;1.27;;;23.40;56.50;;;;;;5045109;28;20049;-62
2022/07/03 13:02:48;;;;;;;1.27;1.20;;;23.30;56.30;;;;;;5044763;28;20079;-62
2022/07/03 13:05:19;;;;;;;1.55;1.45;;;23.30;56.30;;;;;;5043586;28;20056;-62
2022/07/03 13:07:49;;;;;;;1.48;1.38;;;23.40;56.30;;;;;;5044780;28;20052;-62
2022/07/03 13:10:17;;;;;;;;;;;23.30;56.10;;;;;;5045133;28;20610;-62
2022/07/03 13:12:58;;;;;;;1.50;1.40;;;23.40;56.10;;;;;;5045271;28;19928;-61
2022/07/03 13:15:29;;;;;;;1.25;1.25;;;23.40;56.00;;;;;;5044525;28;20088;-62
2022/07/03 13:17:59;;;;;;;1.00;1.00;;;23.40;56.00;;;;;;5044589;28;20049;-60
2022/07/03 13:20:30;;;;;;;1.30;1.30;;;23.30;55.90;;;;;;5048209;28;20540;-61
2022/07/03 13:22:59;;;;;;;1.20;1.20;;;23.30;55.90;;;;;;5048406;28;20324;-61